sensor_id;sensor_type;location;lat;lon;timestamp;P1;durP1;ratioP1;P2;durP2;ratioP2
61460;SDS011;47325;50.506;4.472;2023-03-23T00:02:16;3.00;;;2.30;;
61460;SDS011;47325;50.506;4.472;2023-03-23T00:08:02;3.30;;;2.20;;
61460;SDS011;47325;50.506;4.472;2023-03-23T00:13:48;3.60;;;2.20;;
61460;SDS011;47325;50.506;4.472;2023-03-23T00:19:33;2.80;;;2.10;;
61460;SDS011;47325;50.506;4.472;2023-03-23T00:25:18;3.30;;;2.40;;
61460;SDS011;47325;50.506;4.472;2023-03-23T00:31:04;3.60;;;2.40;;
61460;SDS011;47325;50.506;4.472;2023-03-23T00:36:50;4.20;;;2.20;;
61460;SDS011;47325;50.506;4.472;2023-03-23T00:48:20;3.90;;;2.20;;
61460;SDS011;47325;50.506;4.472;2023-03-23T00:54:05;3.80;;;2.50;;
61460;SDS011;47325;50.506;4.472;2023-03-23T00:59:50;3.50;;;2.40;;
61460;SDS011;47325;50.506;4.472;2023-03-23T01:05:46;3.60;;;2.50;;
61460;SDS011;47325;50.506;4.472;2023-03-23T01:11:31;3.50;;;2.20;;
61460;SDS011;47325;50.506;4.472;2023-03-23T01:17:15;3.70;;;2.30;;
61460;SDS011;47325;50.506;4.472;2023-03-23T01:23:00;3.10;;;2.20;;
61460;SDS011;47325;50.506;4.472;2023-03-23T01:28:45;3.50;;;2.40;;
61460;SDS011;47325;50.506;4.472;2023-03-23T01:34:30;3.60;;;2.50;;
61460;SDS011;47325;50.506;4.472;2023-03-23T01:40:15;3.70;;;2.50;;
61460;SDS011;47325;50.506;4.472;2023-03-23T01:46:00;3.50;;;2.20;;
61460;SDS011;47325;50.506;4.472;2023-03-23T01:51:45;4.30;;;2.50;;
61460;SDS011;47325;50.506;4.472;2023-03-23T01:57:32;3.70;;;2.30;;
61460;SDS011;47325;50.506;4.472;2023-03-23T02:03:18;3.90;;;2.20;;
61460;SDS011;47325;50.506;4.472;2023-03-23T02:09:04;3.20;;;2.30;;
61460;SDS011;47325;50.506;4.472;2023-03-23T02:14:54;2.80;;;2.20;;
61460;SDS011;47325;50.506;4.472;2023-03-23T02:20:44;3.40;;;2.10;;
61460;SDS011;47325;50.506;4.472;2023-03-23T02:26:37;3.50;;;2.10;;
61460;SDS011;47325;50.506;4.472;2023-03-23T02:32:29;3.80;;;1.80;;
61460;SDS011;47325;50.506;4.472;2023-03-23T02:38:18;3.30;;;2.10;;
61460;SDS011;47325;50.506;4.472;2023-03-23T02:44:05;3.10;;;1.80;;
61460;SDS011;47325;50.506;4.472;2023-03-23T02:49:52;3.30;;;1.80;;
61460;SDS011;47325;50.506;4.472;2023-03-23T02:55:39;3.40;;;2.00;;
61460;SDS011;47325;50.506;4.472;2023-03-23T03:07:27;3.80;;;2.00;;
61460;SDS011;47325;50.506;4.472;2023-03-23T03:13:19;2.30;;;1.80;;
61460;SDS011;47325;50.506;4.472;2023-03-23T03:19:05;3.30;;;1.70;;
61460;SDS011;47325;50.506;4.472;2023-03-23T03:24:52;3.00;;;1.80;;
61460;SDS011;47325;50.506;4.472;2023-03-23T03:30:36;2.70;;;1.70;;
61460;SDS011;47325;50.506;4.472;2023-03-23T03:36:23;3.10;;;1.70;;
61460;SDS011;47325;50.506;4.472;2023-03-23T03:42:09;2.30;;;1.70;;
61460;SDS011;47325;50.506;4.472;2023-03-23T03:47:56;2.40;;;1.60;;
61460;SDS011;47325;50.506;4.472;2023-03-23T03:53:41;2.50;;;1.50;;
61460;SDS011;47325;50.506;4.472;2023-03-23T03:59:26;2.40;;;1.40;;
61460;SDS011;47325;50.506;4.472;2023-03-23T04:05:12;3.10;;;1.60;;
61460;SDS011;47325;50.506;4.472;2023-03-23T04:10:58;3.10;;;1.60;;
61460;SDS011;47325;50.506;4.472;2023-03-23T04:16:43;3.00;;;1.50;;
61460;SDS011;47325;50.506;4.472;2023-03-23T04:22:38;2.40;;;1.30;;
61460;SDS011;47325;50.506;4.472;2023-03-23T04:28:24;1.80;;;1.30;;
61460;SDS011;47325;50.506;4.472;2023-03-23T04:34:10;3.80;;;1.50;;
61460;SDS011;47325;50.506;4.472;2023-03-23T04:39:57;3.90;;;1.40;;
61460;SDS011;47325;50.506;4.472;2023-03-23T04:45:42;4.40;;;1.60;;
61460;SDS011;47325;50.506;4.472;2023-03-23T04:51:27;4.20;;;1.40;;
61460;SDS011;47325;50.506;4.472;2023-03-23T04:57:12;3.70;;;1.30;;
61460;SDS011;47325;50.506;4.472;2023-03-23T05:02:57;2.70;;;1.30;;
61460;SDS011;47325;50.506;4.472;2023-03-23T05:08:42;3.30;;;1.30;;
61460;SDS011;47325;50.506;4.472;2023-03-23T05:14:27;4.60;;;1.30;;
61460;SDS011;47325;50.506;4.472;2023-03-23T05:20:19;2.10;;;1.20;;
61460;SDS011;47325;50.506;4.472;2023-03-23T05:26:03;2.80;;;1.20;;
61460;SDS011;47325;50.506;4.472;2023-03-23T05:31:48;2.00;;;1.10;;
61460;SDS011;47325;50.506;4.472;2023-03-23T05:37:32;3.30;;;1.20;;
61460;SDS011;47325;50.506;4.472;2023-03-23T05:43:17;3.50;;;1.30;;
61460;SDS011;47325;50.506;4.472;2023-03-23T05:49:02;2.20;;;1.20;;
61460;SDS011;47325;50.506;4.472;2023-03-23T05:54:46;2.90;;;1.30;;
61460;SDS011;47325;50.506;4.472;2023-03-23T06:00:31;2.70;;;1.20;;
61460;SDS011;47325;50.506;4.472;2023-03-23T06:06:16;3.90;;;1.30;;
61460;SDS011;47325;50.506;4.472;2023-03-23T06:12:01;3.40;;;1.40;;
61460;SDS011;47325;50.506;4.472;2023-03-23T06:17:46;2.90;;;1.50;;
61460;SDS011;47325;50.506;4.472;2023-03-23T06:23:31;3.50;;;1.30;;
61460;SDS011;47325;50.506;4.472;2023-03-23T06:29:16;3.40;;;1.30;;
61460;SDS011;47325;50.506;4.472;2023-03-23T06:35:01;3.20;;;1.20;;
61460;SDS011;47325;50.506;4.472;2023-03-23T06:40:47;4.10;;;1.40;;
61460;SDS011;47325;50.506;4.472;2023-03-23T06:46:31;5.80;;;1.40;;
61460;SDS011;47325;50.506;4.472;2023-03-23T06:52:16;2.20;;;1.40;;
61460;SDS011;47325;50.506;4.472;2023-03-23T06:58:01;2.80;;;1.30;;
61460;SDS011;47325;50.506;4.472;2023-03-23T07:03:46;2.20;;;1.40;;
61460;SDS011;47325;50.506;4.472;2023-03-23T07:09:31;2.60;;;1.20;;
61460;SDS011;47325;50.506;4.472;2023-03-23T07:15:25;3.90;;;1.40;;
61460;SDS011;47325;50.506;4.472;2023-03-23T07:21:10;2.90;;;1.40;;
61460;SDS011;47325;50.506;4.472;2023-03-23T07:26:54;2.60;;;1.30;;
61460;SDS011;47325;50.506;4.472;2023-03-23T07:32:39;3.50;;;1.50;;
61460;SDS011;47325;50.506;4.472;2023-03-23T07:38:24;2.50;;;1.20;;
61460;SDS011;47325;50.506;4.472;2023-03-23T07:44:08;5.10;;;1.50;;
61460;SDS011;47325;50.506;4.472;2023-03-23T07:49:53;1.80;;;1.20;;
61460;SDS011;47325;50.506;4.472;2023-03-23T07:55:38;2.30;;;1.20;;
61460;SDS011;47325;50.506;4.472;2023-03-23T08:01:24;2.90;;;1.40;;
61460;SDS011;47325;50.506;4.472;2023-03-23T08:07:08;4.30;;;1.50;;
61460;SDS011;47325;50.506;4.472;2023-03-23T08:13:02;4.00;;;1.40;;
61460;SDS011;47325;50.506;4.472;2023-03-23T08:18:48;3.60;;;1.20;;
61460;SDS011;47325;50.506;4.472;2023-03-23T08:24:32;2.90;;;1.20;;
61460;SDS011;47325;50.506;4.472;2023-03-23T08:30:19;4.70;;;1.20;;
61460;SDS011;47325;50.506;4.472;2023-03-23T08:36:05;3.30;;;1.10;;
61460;SDS011;47325;50.506;4.472;2023-03-23T08:41:51;3.40;;;1.00;;
61460;SDS011;47325;50.506;4.472;2023-03-23T08:47:36;3.70;;;1.10;;
61460;SDS011;47325;50.506;4.472;2023-03-23T08:53:21;2.50;;;1.00;;
61460;SDS011;47325;50.506;4.472;2023-03-23T08:59:05;2.40;;;0.80;;
61460;SDS011;47325;50.506;4.472;2023-03-23T09:04:51;3.40;;;1.10;;
61460;SDS011;47325;50.506;4.472;2023-03-23T09:10:35;2.70;;;1.10;;
61460;SDS011;47325;50.506;4.472;2023-03-23T09:16:20;4.10;;;1.30;;
61460;SDS011;47325;50.506;4.472;2023-03-23T09:22:04;3.70;;;1.40;;
61460;SDS011;47325;50.506;4.472;2023-03-23T09:27:49;2.90;;;1.10;;
61460;SDS011;47325;50.506;4.472;2023-03-23T09:33:34;3.70;;;1.30;;
61460;SDS011;47325;50.506;4.472;2023-03-23T09:39:28;2.10;;;1.20;;
61460;SDS011;47325;50.506;4.472;2023-03-23T09:45:15;3.60;;;1.50;;
61460;SDS011;47325;50.506;4.472;2023-03-23T09:51:02;2.80;;;1.50;;
61460;SDS011;47325;50.506;4.472;2023-03-23T09:56:49;2.60;;;1.10;;
61460;SDS011;47325;50.506;4.472;2023-03-23T10:02:36;2.00;;;1.10;;
61460;SDS011;47325;50.506;4.472;2023-03-23T10:08:24;3.20;;;1.20;;
61460;SDS011;47325;50.506;4.472;2023-03-23T10:14:14;2.30;;;1.30;;
61460;SDS011;47325;50.506;4.472;2023-03-23T10:20:03;2.20;;;1.10;;
61460;SDS011;47325;50.506;4.472;2023-03-23T10:25:52;3.70;;;1.30;;
61460;SDS011;47325;50.506;4.472;2023-03-23T10:31:38;3.60;;;1.20;;
61460;SDS011;47325;50.506;4.472;2023-03-23T10:37:24;2.40;;;1.10;;
61460;SDS011;47325;50.506;4.472;2023-03-23T10:43:11;2.20;;;1.00;;
61460;SDS011;47325;50.506;4.472;2023-03-23T10:48:56;3.40;;;1.10;;
61460;SDS011;47325;50.506;4.472;2023-03-23T10:54:46;2.80;;;1.10;;
61460;SDS011;47325;50.506;4.472;2023-03-23T11:00:31;4.10;;;1.30;;
61460;SDS011;47325;50.506;4.472;2023-03-23T11:06:18;3.50;;;1.20;;
61460;SDS011;47325;50.506;4.472;2023-03-23T11:12:04;3.10;;;1.20;;
61460;SDS011;47325;50.506;4.472;2023-03-23T11:17:54;3.50;;;1.10;;
61460;SDS011;47325;50.506;4.472;2023-03-23T11:23:39;4.10;;;1.20;;
61460;SDS011;47325;50.506;4.472;2023-03-23T11:29:25;3.80;;;1.20;;
61460;SDS011;47325;50.506;4.472;2023-03-23T11:35:15;3.30;;;1.10;;
61460;SDS011;47325;50.506;4.472;2023-03-23T11:41:00;3.20;;;1.10;;
61460;SDS011;47325;50.506;4.472;2023-03-23T11:46:46;4.80;;;1.10;;
61460;SDS011;47325;50.506;4.472;2023-03-23T11:52:36;3.70;;;1.10;;
61460;SDS011;47325;50.506;4.472;2023-03-23T11:58:23;2.90;;;1.00;;
61460;SDS011;47325;50.506;4.472;2023-03-23T12:04:14;3.90;;;0.90;;
61460;SDS011;47325;50.506;4.472;2023-03-23T12:10:11;3.30;;;1.00;;
61460;SDS011;47325;50.506;4.472;2023-03-23T12:15:53;3.90;;;1.30;;
61460;SDS011;47325;50.506;4.472;2023-03-23T12:21:44;3.90;;;1.10;;
61460;SDS011;47325;50.506;4.472;2023-03-23T12:27:32;3.20;;;1.20;;
61460;SDS011;47325;50.506;4.472;2023-03-23T12:33:22;3.50;;;1.20;;
61460;SDS011;47325;50.506;4.472;2023-03-23T12:39:36;2.60;;;1.20;;
61460;SDS011;47325;50.506;4.472;2023-03-23T12:45:41;2.70;;;1.20;;
61460;SDS011;47325;50.506;4.472;2023-03-23T12:51:17;3.30;;;1.20;;
61460;SDS011;47325;50.506;4.472;2023-03-23T12:57:07;3.60;;;1.20;;
61460;SDS011;47325;50.506;4.472;2023-03-23T13:02:55;3.30;;;1.30;;
61460;SDS011;47325;50.506;4.472;2023-03-23T13:08:43;3.50;;;1.30;;
61460;SDS011;47325;50.506;4.472;2023-03-23T13:14:40;3.00;;;1.50;;
61460;SDS011;47325;50.506;4.472;2023-03-23T13:26:17;4.20;;;1.50;;
61460;SDS011;47325;50.506;4.472;2023-03-23T13:32:10;3.50;;;1.50;;
61460;SDS011;47325;50.506;4.472;2023-03-23T13:37:55;4.40;;;1.40;;
61460;SDS011;47325;50.506;4.472;2023-03-23T13:43:41;3.70;;;1.30;;
61460;SDS011;47325;50.506;4.472;2023-03-23T13:49:26;3.70;;;1.50;;
61460;SDS011;47325;50.506;4.472;2023-03-23T13:55:17;3.20;;;1.30;;
61460;SDS011;47325;50.506;4.472;2023-03-23T14:01:13;4.40;;;1.40;;
61460;SDS011;47325;50.506;4.472;2023-03-23T14:07:08;3.00;;;1.30;;
61460;SDS011;47325;50.506;4.472;2023-03-23T14:12:48;4.30;;;1.40;;
61460;SDS011;47325;50.506;4.472;2023-03-23T14:18:35;3.70;;;1.40;;
61460;SDS011;47325;50.506;4.472;2023-03-23T14:24:22;4.30;;;1.70;;
61460;SDS011;47325;50.506;4.472;2023-03-23T14:30:07;2.90;;;1.40;;
61460;SDS011;47325;50.506;4.472;2023-03-23T14:35:52;3.80;;;1.40;;
61460;SDS011;47325;50.506;4.472;2023-03-23T14:41:37;3.70;;;1.40;;
61460;SDS011;47325;50.506;4.472;2023-03-23T14:47:24;4.40;;;1.60;;
61460;SDS011;47325;50.506;4.472;2023-03-23T14:53:13;4.80;;;1.60;;
61460;SDS011;47325;50.506;4.472;2023-03-23T14:59:02;5.30;;;1.60;;
61460;SDS011;47325;50.506;4.472;2023-03-23T15:04:48;3.30;;;1.50;;
61460;SDS011;47325;50.506;4.472;2023-03-23T15:10:34;5.70;;;1.60;;
61460;SDS011;47325;50.506;4.472;2023-03-23T15:16:19;3.60;;;1.60;;
61460;SDS011;47325;50.506;4.472;2023-03-23T15:22:26;3.50;;;1.40;;
61460;SDS011;47325;50.506;4.472;2023-03-23T15:27:58;4.40;;;1.60;;
61460;SDS011;47325;50.506;4.472;2023-03-23T15:33:47;3.00;;;1.50;;
61460;SDS011;47325;50.506;4.472;2023-03-23T15:39:34;5.40;;;1.50;;
61460;SDS011;47325;50.506;4.472;2023-03-23T15:45:25;3.10;;;1.30;;
61460;SDS011;47325;50.506;4.472;2023-03-23T15:51:10;3.60;;;1.60;;
61460;SDS011;47325;50.506;4.472;2023-03-23T15:56:56;3.30;;;1.60;;
61460;SDS011;47325;50.506;4.472;2023-03-23T16:02:41;5.70;;;1.60;;
61460;SDS011;47325;50.506;4.472;2023-03-23T16:08:26;3.90;;;1.60;;
61460;SDS011;47325;50.506;4.472;2023-03-23T16:14:11;4.90;;;1.60;;
61460;SDS011;47325;50.506;4.472;2023-03-23T16:19:58;3.20;;;1.50;;
61460;SDS011;47325;50.506;4.472;2023-03-23T16:25:46;4.30;;;1.60;;
61460;SDS011;47325;50.506;4.472;2023-03-23T16:31:30;3.90;;;1.70;;
61460;SDS011;47325;50.506;4.472;2023-03-23T16:37:15;4.20;;;1.50;;
61460;SDS011;47325;50.506;4.472;2023-03-23T16:42:59;4.90;;;1.60;;
61460;SDS011;47325;50.506;4.472;2023-03-23T16:48:50;4.60;;;1.40;;
61460;SDS011;47325;50.506;4.472;2023-03-23T16:54:35;3.90;;;1.70;;
61460;SDS011;47325;50.506;4.472;2023-03-23T17:00:20;4.90;;;2.10;;
61460;SDS011;47325;50.506;4.472;2023-03-23T17:06:05;4.80;;;2.20;;
61460;SDS011;47325;50.506;4.472;2023-03-23T17:11:49;7.20;;;2.40;;
61460;SDS011;47325;50.506;4.472;2023-03-23T17:17:34;6.00;;;2.30;;
61460;SDS011;47325;50.506;4.472;2023-03-23T17:23:19;6.80;;;2.50;;
61460;SDS011;47325;50.506;4.472;2023-03-23T17:29:03;9.40;;;3.20;;
61460;SDS011;47325;50.506;4.472;2023-03-23T17:34:48;21.50;;;7.60;;
61460;SDS011;47325;50.506;4.472;2023-03-23T17:40:33;20.80;;;7.10;;
61460;SDS011;47325;50.506;4.472;2023-03-23T17:46:18;17.60;;;5.60;;
61460;SDS011;47325;50.506;4.472;2023-03-23T17:52:03;14.30;;;5.40;;
61460;SDS011;47325;50.506;4.472;2023-03-23T17:57:48;12.30;;;4.70;;
61460;SDS011;47325;50.506;4.472;2023-03-23T18:03:32;10.70;;;4.50;;
61460;SDS011;47325;50.506;4.472;2023-03-23T18:09:19;13.20;;;4.70;;
61460;SDS011;47325;50.506;4.472;2023-03-23T18:15:04;11.80;;;3.70;;
61460;SDS011;47325;50.506;4.472;2023-03-23T18:20:49;9.30;;;3.40;;
61460;SDS011;47325;50.506;4.472;2023-03-23T18:26:38;10.80;;;3.60;;
61460;SDS011;47325;50.506;4.472;2023-03-23T18:32:24;12.00;;;3.50;;
61460;SDS011;47325;50.506;4.472;2023-03-23T18:38:09;8.40;;;3.00;;
61460;SDS011;47325;50.506;4.472;2023-03-23T18:43:54;8.60;;;3.00;;
61460;SDS011;47325;50.506;4.472;2023-03-23T18:49:41;7.10;;;2.70;;
61460;SDS011;47325;50.506;4.472;2023-03-23T18:55:25;6.80;;;2.80;;
61460;SDS011;47325;50.506;4.472;2023-03-23T19:01:11;6.00;;;2.60;;
61460;SDS011;47325;50.506;4.472;2023-03-23T19:06:56;6.40;;;2.40;;
61460;SDS011;47325;50.506;4.472;2023-03-23T19:12:40;6.30;;;2.20;;
61460;SDS011;47325;50.506;4.472;2023-03-23T19:18:27;6.10;;;2.40;;
61460;SDS011;47325;50.506;4.472;2023-03-23T19:24:11;7.10;;;2.10;;
61460;SDS011;47325;50.506;4.472;2023-03-23T19:29:56;5.90;;;2.40;;
61460;SDS011;47325;50.506;4.472;2023-03-23T19:35:41;4.20;;;2.10;;
61460;SDS011;47325;50.506;4.472;2023-03-23T19:41:31;3.40;;;1.90;;
61460;SDS011;47325;50.506;4.472;2023-03-23T19:47:15;6.20;;;1.90;;
61460;SDS011;47325;50.506;4.472;2023-03-23T19:53:00;6.00;;;2.20;;
61460;SDS011;47325;50.506;4.472;2023-03-23T19:58:45;4.10;;;2.00;;
61460;SDS011;47325;50.506;4.472;2023-03-23T20:04:30;6.60;;;2.00;;
61460;SDS011;47325;50.506;4.472;2023-03-23T20:10:15;4.50;;;2.00;;
61460;SDS011;47325;50.506;4.472;2023-03-23T20:16:00;5.80;;;2.10;;
61460;SDS011;47325;50.506;4.472;2023-03-23T20:21:45;6.30;;;2.10;;
61460;SDS011;47325;50.506;4.472;2023-03-23T20:27:32;4.80;;;1.90;;
61460;SDS011;47325;50.506;4.472;2023-03-23T20:33:18;3.80;;;1.90;;
61460;SDS011;47325;50.506;4.472;2023-03-23T20:39:02;4.00;;;1.90;;
61460;SDS011;47325;50.506;4.472;2023-03-23T20:44:47;5.00;;;2.10;;
61460;SDS011;47325;50.506;4.472;2023-03-23T20:50:32;4.00;;;1.70;;
61460;SDS011;47325;50.506;4.472;2023-03-23T20:56:17;3.70;;;1.90;;
61460;SDS011;47325;50.506;4.472;2023-03-23T21:02:02;4.50;;;1.80;;
61460;SDS011;47325;50.506;4.472;2023-03-23T21:07:46;2.80;;;1.50;;
61460;SDS011;47325;50.506;4.472;2023-03-23T21:13:31;3.70;;;1.80;;
61460;SDS011;47325;50.506;4.472;2023-03-23T21:19:16;3.80;;;1.70;;
61460;SDS011;47325;50.506;4.472;2023-03-23T21:25:02;5.10;;;1.90;;
61460;SDS011;47325;50.506;4.472;2023-03-23T21:30:47;3.30;;;1.50;;
61460;SDS011;47325;50.506;4.472;2023-03-23T21:36:32;4.10;;;1.70;;
61460;SDS011;47325;50.506;4.472;2023-03-23T21:42:17;4.30;;;1.70;;
61460;SDS011;47325;50.506;4.472;2023-03-23T21:48:02;3.50;;;1.70;;
61460;SDS011;47325;50.506;4.472;2023-03-23T21:53:47;3.40;;;1.60;;
61460;SDS011;47325;50.506;4.472;2023-03-23T21:59:31;3.00;;;1.50;;
61460;SDS011;47325;50.506;4.472;2023-03-23T22:05:18;3.80;;;1.70;;
61460;SDS011;47325;50.506;4.472;2023-03-23T22:11:04;4.00;;;1.50;;
61460;SDS011;47325;50.506;4.472;2023-03-23T22:16:49;2.90;;;1.50;;
61460;SDS011;47325;50.506;4.472;2023-03-23T22:22:34;3.40;;;1.50;;
61460;SDS011;47325;50.506;4.472;2023-03-23T22:28:18;2.90;;;1.70;;
61460;SDS011;47325;50.506;4.472;2023-03-23T22:34:03;4.30;;;1.60;;
61460;SDS011;47325;50.506;4.472;2023-03-23T22:39:47;3.70;;;1.50;;
61460;SDS011;47325;50.506;4.472;2023-03-23T22:45:32;3.80;;;1.50;;
61460;SDS011;47325;50.506;4.472;2023-03-23T22:51:17;3.80;;;1.70;;
61460;SDS011;47325;50.506;4.472;2023-03-23T22:57:02;3.40;;;1.60;;
61460;SDS011;47325;50.506;4.472;2023-03-23T23:02:47;4.00;;;1.90;;
61460;SDS011;47325;50.506;4.472;2023-03-23T23:08:32;3.40;;;1.80;;
61460;SDS011;47325;50.506;4.472;2023-03-23T23:14:17;3.80;;;1.70;;
61460;SDS011;47325;50.506;4.472;2023-03-23T23:20:02;3.50;;;1.90;;
61460;SDS011;47325;50.506;4.472;2023-03-23T23:25:47;3.50;;;1.90;;
61460;SDS011;47325;50.506;4.472;2023-03-23T23:31:32;3.80;;;1.80;;
61460;SDS011;47325;50.506;4.472;2023-03-23T23:37:17;4.20;;;1.60;;
61460;SDS011;47325;50.506;4.472;2023-03-23T23:43:02;3.90;;;2.10;;
61460;SDS011;47325;50.506;4.472;2023-03-23T23:48:47;3.90;;;2.20;;
61460;SDS011;47325;50.506;4.472;2023-03-23T23:54:31;4.40;;;2.20;;
